Time;durP1;ratioP1;P1;durP2;ratioP2;P2;SDS_P1;SDS_P2;PMS_P1;PMS_P2;Temp;Humidity;BMP_temperature;BMP_pressure;BME280_temperature;BME280_humidity;BME280_pressure;Samples;Min_cycle;Max_cycle;Signal;HPM_P1;HPM_P2
2023/10/05 00:00:38;;;;;;;2.23;1.33;;;16.50;99.90;;;;;;5085881;28;20786;-77
2023/10/05 00:03:05;;;;;;;1.93;1.40;;;16.50;99.90;;;;;;5085043;28;20515;-80
2023/10/05 00:05:35;;;;;;;3.10;1.93;;;16.40;99.90;;;;;;5087696;28;20420;-75
2023/10/05 00:08:07;;;;;;;2.67;1.50;;;16.40;99.90;;;;;;5088727;28;20441;-75
2023/10/05 00:10:33;;;;;;;3.87;1.70;;;16.30;99.90;;;;;;5089944;28;20421;-80
2023/10/05 00:13:04;;;;;;;2.53;1.20;;;16.20;99.90;;;;;;5088237;28;20459;-80
2023/10/05 00:15:32;;;;;;;5.10;1.30;;;16.20;99.90;;;;;;5089737;28;20466;-74
2023/10/05 00:17:57;;;;;;;4.50;1.53;;;16.20;99.90;;;;;;5088427;28;20952;-80
2023/10/05 00:20:35;;;;;;;3.27;1.70;;;16.20;99.90;;;;;;5089521;28;20435;-75
2023/10/05 00:23:08;;;;;;;3.80;2.03;;;16.20;99.90;;;;;;5088075;28;20848;-74
2023/10/05 00:25:34;;;;;;;3.20;2.27;;;16.20;99.90;;;;;;5090092;28;21011;-80
2023/10/05 00:28:04;;;;;;;5.00;1.60;;;16.10;99.90;;;;;;5089260;28;20409;-80
2023/10/05 00:30:31;;;;;;;4.90;2.30;;;16.10;99.90;;;;;;5088364;28;20494;-75
2023/10/05 00:33:00;;;;;;;3.67;2.10;;;16.10;99.90;;;;;;5087605;28;20933;-80
2023/10/05 00:35:28;;;;;;;2.50;1.77;;;16.00;99.90;;;;;;5087988;28;20482;-75
2023/10/05 00:37:58;;;;;;;3.07;1.80;;;16.00;99.90;;;;;;5087691;28;20467;-79
2023/10/05 00:40:42;;;;;;;4.27;2.17;;;16.00;99.90;;;;;;5089050;28;20425;-77
2023/10/05 00:45:47;;;;;;;2.10;1.63;;;16.00;99.90;;;;;;5089415;28;20432;-75
2023/10/05 00:48:26;;;;;;;2.50;1.90;;;15.90;99.90;;;;;;5089087;28;20755;-79
2023/10/05 00:50:53;;;;;;;4.20;2.10;;;15.90;99.90;;;;;;5088768;28;20443;-75
2023/10/05 00:53:19;;;;;;;4.33;1.90;;;15.90;99.90;;;;;;5088095;28;20441;-80
2023/10/05 00:55:51;;;;;;;3.10;1.80;;;15.90;99.90;;;;;;5088209;28;21042;-75
2023/10/05 00:58:17;;;;;;;3.47;1.97;;;15.80;99.90;;;;;;5087623;28;20433;-75
2023/10/05 01:00:53;;;;;;;2.50;1.83;;;15.80;99.90;;;;;;5088750;28;20428;-75
2023/10/05 01:05:56;;;;;;;4.87;1.90;;;15.60;99.90;;;;;;5088736;28;20421;-79
2023/10/05 01:08:23;;;;;;;2.80;2.03;;;15.60;99.90;;;;;;5088833;28;20928;-77
2023/10/05 01:10:53;;;;;;;3.63;1.77;;;15.60;99.90;;;;;;5087291;28;20433;-77
2023/10/05 01:13:30;;;;;;;2.50;1.70;;;15.50;99.90;;;;;;5089024;28;21020;-82
2023/10/05 01:15:57;;;;;;;4.27;2.00;;;15.50;99.90;;;;;;5088308;28;20445;-77
2023/10/05 01:18:25;;;;;;;3.23;1.93;;;15.50;99.90;;;;;;5088027;28;20415;-75
2023/10/05 01:20:51;;;;;;;3.30;1.73;;;15.40;99.90;;;;;;5086936;28;20506;-80
2023/10/05 01:23:18;;;;;;;2.50;1.90;;;15.50;99.90;;;;;;5088482;28;20473;-80
2023/10/05 01:25:44;;;;;;;3.07;2.00;;;15.50;99.90;;;;;;5086648;28;20440;-77
2023/10/05 01:28:09;;;;;;;3.93;2.37;;;15.40;99.90;;;;;;5087066;28;20917;-75
2023/10/05 01:30:38;;;;;;;4.50;2.00;;;15.40;99.90;;;;;;5086910;28;20200;-75
2023/10/05 01:33:04;;;;;;;3.73;2.00;;;15.40;99.90;;;;;;5087747;28;20165;-80
2023/10/05 01:35:30;;;;;;;5.87;2.00;;;15.30;99.90;;;;;;5088463;28;20502;-80
2023/10/05 01:37:59;;;;;;;5.00;2.37;;;15.30;99.90;;;;;;5087734;28;20533;-75
2023/10/05 01:40:29;;;;;;;2.90;1.90;;;15.30;99.90;;;;;;5088211;28;20413;-80
2023/10/05 01:42:56;;;;;;;4.97;2.43;;;15.20;99.90;;;;;;5086355;28;20530;-79
2023/10/05 01:45:33;;;;;;;3.90;1.83;;;15.20;99.90;;;;;;5088144;28;20458;-79
2023/10/05 01:48:03;;;;;;;3.93;2.10;;;15.20;99.90;;;;;;5087886;28;20424;-79
2023/10/05 01:50:29;;;;;;;2.90;1.80;;;15.20;99.90;;;;;;5088142;28;20417;-80
2023/10/05 01:53:07;;;;;;;4.47;2.20;;;15.20;99.90;;;;;;5087962;28;20498;-79
2023/10/05 01:55:36;;;;;;;3.50;2.37;;;15.10;99.90;;;;;;5087019;28;20184;-74
2023/10/05 01:58:06;;;;;;;4.60;2.00;;;15.00;99.90;;;;;;5087398;28;20421;-79
2023/10/05 02:00:37;;;;;;;2.60;1.77;;;14.90;99.90;;;;;;5087787;28;21080;-80
2023/10/05 02:03:06;;;;;;;3.13;1.90;;;14.90;99.90;;;;;;5087091;28;20476;-75
2023/10/05 02:05:32;;;;;;;2.50;1.73;;;14.90;99.90;;;;;;5087523;28;20417;-75
2023/10/05 02:07:58;;;;;;;5.33;2.60;;;14.90;99.90;;;;;;5087535;28;20419;-80
2023/10/05 02:10:23;;;;;;;3.80;2.20;;;14.90;99.90;;;;;;5087411;28;20199;-75
2023/10/05 02:12:54;;;;;;;6.40;2.23;;;14.80;99.90;;;;;;5087227;28;20906;-80
2023/10/05 02:15:28;;;;;;;4.33;2.97;;;14.80;99.90;;;;;;5086106;28;20272;-79
2023/10/05 02:17:54;;;;;;;3.33;2.17;;;14.80;99.90;;;;;;5087455;28;20429;-75
2023/10/05 02:20:38;;;;;;;2.40;2.20;;;14.80;99.90;;;;;;5087267;28;20443;-76
2023/10/05 02:23:24;;;;;;;2.50;1.73;;;14.80;99.90;;;;;;5086947;28;20480;-80
2023/10/05 02:25:57;;;;;;;4.10;2.00;;;14.70;99.90;;;;;;5086869;28;20444;-80
2023/10/05 02:28:25;;;;;;;5.60;3.70;;;14.70;99.90;;;;;;5086531;28;20902;-75
2023/10/05 02:30:59;;;;;;;3.77;2.20;;;14.70;99.90;;;;;;5087133;28;20959;-75
2023/10/05 02:33:27;;;;;;;2.30;1.87;;;14.70;99.90;;;;;;5087234;28;20416;-79
2023/10/05 02:36:04;;;;;;;4.13;2.23;;;14.70;99.90;;;;;;5085402;28;20945;-80
2023/10/05 02:38:32;;;;;;;2.80;2.00;;;14.70;99.90;;;;;;5085654;28;20472;-80
2023/10/05 02:41:05;;;;;;;4.77;2.30;;;14.60;99.90;;;;;;5086595;28;20799;-80
2023/10/05 02:43:39;;;;;;;1.97;1.77;;;14.70;99.90;;;;;;5087136;28;20612;-80
2023/10/05 02:46:10;;;;;;;3.00;2.13;;;14.70;99.90;;;;;;5085401;28;20421;-75
2023/10/05 02:48:38;;;;;;;4.57;2.20;;;14.70;99.90;;;;;;5085822;28;20429;-79
2023/10/05 02:51:10;;;;;;;2.90;2.23;;;14.70;99.90;;;;;;5084772;28;20429;-75
2023/10/05 02:53:43;;;;;;;4.03;2.50;;;14.70;99.90;;;;;;5085375;28;20455;-74
2023/10/05 02:56:22;;;;;;;2.20;1.73;;;14.70;99.90;;;;;;5085035;28;20519;-75
2023/10/05 02:58:54;;;;;;;3.20;1.90;;;14.70;99.90;;;;;;5084566;28;20460;-75
2023/10/05 03:01:21;;;;;;;5.90;2.80;;;14.70;99.90;;;;;;5085022;28;20437;-75
2023/10/05 03:03:47;;;;;;;3.20;2.03;;;14.70;99.90;;;;;;5084538;28;20492;-80
2023/10/05 03:06:15;;;;;;;2.97;2.40;;;14.80;99.90;;;;;;5085170;28;20433;-80
2023/10/05 03:08:41;;;;;;;3.80;2.90;;;14.90;99.90;;;;;;5085206;28;20524;-75
2023/10/05 03:11:08;;;;;;;2.73;2.23;;;15.00;99.90;;;;;;5086226;28;20965;-75
2023/10/05 03:13:37;;;;;;;4.20;2.23;;;15.10;99.90;;;;;;5084946;28;20440;-80
2023/10/05 03:16:06;;;;;;;3.90;2.47;;;15.20;99.90;;;;;;5084692;28;20512;-80
2023/10/05 03:18:37;;;;;;;3.63;2.37;;;15.30;99.90;;;;;;5086512;28;20755;-75
2023/10/05 03:21:12;;;;;;;3.70;2.63;;;15.40;99.90;;;;;;5084727;28;20476;-80
2023/10/05 03:23:41;;;;;;;3.50;2.37;;;15.40;99.90;;;;;;5086208;28;20952;-75
2023/10/05 03:26:16;;;;;;;3.30;2.23;;;15.50;99.90;;;;;;5084467;28;20448;-80
2023/10/05 03:28:42;;;;;;;4.40;3.50;;;15.60;99.90;;;;;;5084817;28;20654;-80
2023/10/05 03:31:32;;;;;;;3.93;2.80;;;15.60;99.90;;;;;;5086036;28;20467;-75
2023/10/05 03:33:58;;;;;;;3.30;2.50;;;15.60;99.90;;;;;;5085962;28;20172;-75
2023/10/05 03:36:23;;;;;;;3.83;2.53;;;15.70;99.90;;;;;;5086360;28;20482;-80
2023/10/05 03:38:56;;;;;;;3.70;2.50;;;15.70;99.90;;;;;;5083668;28;20228;-80
2023/10/05 03:41:27;;;;;;;5.67;2.57;;;15.70;99.90;;;;;;5084514;28;20214;-80
2023/10/05 03:44:01;;;;;;;3.13;2.37;;;15.70;99.90;;;;;;5084399;28;20485;-80
2023/10/05 03:46:26;;;;;;;3.57;2.80;;;15.80;99.90;;;;;;5086322;28;20413;-79
2023/10/05 03:48:59;;;;;;;5.07;2.97;;;15.80;99.90;;;;;;5085563;28;20847;-80
2023/10/05 03:51:25;;;;;;;4.50;3.00;;;15.80;99.90;;;;;;5086153;28;20722;-81
2023/10/05 03:53:51;;;;;;;19.73;10.50;;;15.70;99.90;;;;;;5085653;28;20702;-76
2023/10/05 03:56:19;;;;;;;4.83;4.33;;;15.70;99.90;;;;;;5085625;28;20528;-80
2023/10/05 03:58:48;;;;;;;3.70;2.83;;;15.60;99.90;;;;;;5084395;28;20271;-76
2023/10/05 04:01:17;;;;;;;3.30;2.80;;;15.50;99.90;;;;;;5085096;28;20835;-80
2023/10/05 04:03:44;;;;;;;7.33;2.87;;;15.50;99.90;;;;;;5084082;28;20495;-80
2023/10/05 04:06:23;;;;;;;3.53;2.43;;;15.40;99.90;;;;;;5085258;28;20463;-78
2023/10/05 04:08:59;;;;;;;5.67;2.90;;;15.30;99.90;;;;;;5084365;28;20789;-75
2023/10/05 04:11:29;;;;;;;3.40;2.57;;;15.20;99.90;;;;;;5084410;28;20957;-80
2023/10/05 04:13:55;;;;;;;5.73;2.70;;;15.20;99.90;;;;;;5083906;28;20637;-75
2023/10/05 04:16:26;;;;;;;2.53;2.27;;;15.20;99.90;;;;;;5085579;28;20451;-76
2023/10/05 04:18:53;;;;;;;4.20;2.43;;;15.10;99.90;;;;;;5085082;28;20425;-75
2023/10/05 04:21:22;;;;;;;3.77;2.67;;;15.10;99.90;;;;;;5086450;28;20437;-80
2023/10/05 04:23:52;;;;;;;6.37;2.93;;;15.00;99.90;;;;;;5090770;28;20488;-80
2023/10/05 04:26:21;;;;;;;4.20;3.20;;;15.00;99.90;;;;;;5085232;28;20482;-75
2023/10/05 04:28:57;;;;;;;3.73;2.90;;;15.00;99.90;;;;;;5084923;28;20498;-75
2023/10/05 04:31:26;;;;;;;3.50;3.20;;;15.10;99.90;;;;;;5085669;28;20424;-80
2023/10/05 04:33:54;;;;;;;3.87;3.07;;;15.20;99.90;;;;;;5090104;28;20481;-75
2023/10/05 04:36:22;;;;;;;3.53;3.00;;;15.20;99.90;;;;;;5104880;28;20503;-75
2023/10/05 04:38:54;;;;;;;3.87;2.70;;;15.30;99.90;;;;;;5098159;28;20463;-75
2023/10/05 04:41:24;;;;;;;3.90;2.67;;;15.30;99.90;;;;;;5096785;28;20470;-79
2023/10/05 04:43:50;;;;;;;6.23;4.10;;;15.40;99.90;;;;;;5104697;28;20486;-76
2023/10/05 04:46:19;;;;;;;4.90;4.30;;;15.40;99.90;;;;;;5103380;28;20448;-76
2023/10/05 04:51:32;;;;;;;6.10;4.00;;;15.30;99.90;;;;;;5104833;28;20427;-75
2023/10/05 04:53:59;;;;;;;204.93;78.70;;;15.20;99.90;;;;;;5108723;28;20420;-80
2023/10/05 05:07:02;;;;;;;4.10;2.80;;;14.80;99.90;;;;;;5098421;28;20397;-79
2023/10/05 05:09:34;;;;;;;6.27;3.63;;;14.80;99.90;;;;;;5097878;28;20644;-80
2023/10/05 05:12:04;;;;;;;12.00;3.17;;;14.80;99.90;;;;;;5093942;28;20424;-74
2023/10/05 05:14:47;;;;;;;4.97;3.13;;;14.70;99.90;;;;;;5095446;28;20467;-75
2023/10/05 05:17:18;;;;;;;4.93;2.50;;;14.70;99.90;;;;;;5098406;28;20411;-75
2023/10/05 05:19:44;;;;;;;4.87;2.33;;;14.70;99.90;;;;;;5096528;28;20805;-79
2023/10/05 05:22:13;;;;;;;3.83;2.70;;;14.70;99.90;;;;;;5098622;28;20473;-79
2023/10/05 05:24:39;;;;;;;3.80;2.57;;;14.80;99.90;;;;;;5096628;28;20452;-80
2023/10/05 05:27:21;;;;;;;2.93;2.60;;;14.80;99.90;;;;;;5094031;28;20536;-80
2023/10/05 05:29:48;;;;;;;3.73;3.30;;;14.80;99.90;;;;;;5089862;28;20465;-75
2023/10/05 05:32:14;;;;;;;5.20;3.57;;;14.80;99.90;;;;;;5090102;28;20469;-75
2023/10/05 05:34:41;;;;;;;5.70;3.50;;;14.80;99.90;;;;;;5095245;28;20558;-80
2023/10/05 05:37:13;;;;;;;4.07;3.23;;;14.80;99.90;;;;;;5096873;28;20200;-75
2023/10/05 05:39:40;;;;;;;4.87;3.10;;;14.80;99.90;;;;;;5093177;28;20803;-77
2023/10/05 05:42:12;;;;;;;4.77;3.40;;;14.80;99.90;;;;;;5093141;28;20424;-79
2023/10/05 05:44:38;;;;;;;4.10;3.30;;;14.70;99.90;;;;;;5090946;28;20448;-80
2023/10/05 05:47:10;;;;;;;3.50;2.83;;;14.80;99.90;;;;;;5095440;28;20420;-80
2023/10/05 05:49:46;;;;;;;6.27;3.37;;;14.80;99.90;;;;;;5090105;28;20287;-76
2023/10/05 05:52:12;;;;;;;5.57;3.10;;;14.80;99.90;;;;;;5092780;28;20510;-81
2023/10/05 05:54:39;;;;;;;6.53;3.63;;;14.90;99.90;;;;;;5089413;28;20673;-80
2023/10/05 05:57:06;;;;;;;4.50;2.83;;;15.00;99.90;;;;;;5091157;28;20439;-76
2023/10/05 05:59:34;;;;;;;4.70;3.37;;;15.10;99.90;;;;;;5093021;28;20455;-75
2023/10/05 06:02:01;;;;;;;12.80;6.73;;;15.20;99.90;;;;;;5092002;28;20427;-79
2023/10/05 06:04:28;;;;;;;23.73;11.67;;;15.20;99.90;;;;;;5090908;28;20502;-79
2023/10/05 06:06:53;;;;;;;4.90;3.70;;;15.30;99.90;;;;;;5092403;28;20981;-75
2023/10/05 06:09:22;;;;;;;4.80;3.17;;;15.30;99.90;;;;;;5088140;28;20436;-75
2023/10/05 06:11:51;;;;;;;4.00;3.00;;;15.30;99.90;;;;;;5094303;28;20538;-79
2023/10/05 06:14:17;;;;;;;5.40;3.63;;;15.40;99.90;;;;;;5087473;28;20493;-79
2023/10/05 06:16:43;;;;;;;5.90;3.73;;;15.50;99.90;;;;;;5090318;28;20405;-75
2023/10/05 06:19:09;;;;;;;3.50;3.10;;;15.50;99.90;;;;;;5098661;28;20770;-78
2023/10/05 06:21:35;;;;;;;6.77;3.77;;;15.60;99.90;;;;;;5089489;28;20412;-75
2023/10/05 06:24:05;;;;;;;4.80;3.27;;;15.60;99.90;;;;;;5092760;28;20216;-80
2023/10/05 06:26:31;;;;;;;5.40;3.57;;;15.70;99.90;;;;;;5093349;28;20909;-80
2023/10/05 06:28:57;;;;;;;3.90;3.20;;;15.80;99.90;;;;;;5098197;28;20423;-80
2023/10/05 06:31:23;;;;;;;5.23;3.73;;;15.80;99.90;;;;;;5098946;28;20447;-80
2023/10/05 06:33:49;;;;;;;7.07;3.17;;;15.90;99.90;;;;;;5096758;28;20795;-75
2023/10/05 06:36:14;;;;;;;5.43;3.23;;;16.00;99.90;;;;;;5092048;28;20448;-79
2023/10/05 06:38:40;;;;;;;4.80;3.53;;;16.10;99.90;;;;;;5097945;28;20616;-75
2023/10/05 06:41:06;;;;;;;24.50;13.80;;;16.20;99.90;;;;;;5087569;28;20480;-79
2023/10/05 06:43:35;;;;;;;5.70;4.07;;;16.20;99.90;;;;;;5085634;28;20485;-75
2023/10/05 06:46:14;;;;;;;4.70;3.60;;;16.30;99.90;;;;;;5086892;28;20859;-76
2023/10/05 06:48:40;;;;;;;9.03;4.50;;;16.30;99.90;;;;;;5083015;28;20487;-80
2023/10/05 06:51:07;;;;;;;4.60;3.00;;;16.30;99.90;;;;;;5096261;28;20459;-75
2023/10/05 06:53:32;;;;;;;4.40;3.10;;;16.40;99.90;;;;;;5097706;28;20428;-80
2023/10/05 06:55:58;;;;;;;6.83;4.00;;;16.40;99.90;;;;;;5084627;28;20454;-79
2023/10/05 06:58:24;;;;;;;6.13;3.63;;;16.40;99.90;;;;;;5086833;28;20703;-80
2023/10/05 07:00:50;;;;;;;4.13;3.47;;;16.50;99.90;;;;;;5085808;28;20265;-79
2023/10/05 07:03:16;;;;;;;5.40;4.30;;;16.60;99.90;;;;;;5087274;28;20224;-78
2023/10/05 07:05:41;;;;;;;4.37;3.37;;;16.60;99.90;;;;;;5089469;28;20525;-82
2023/10/05 07:08:07;;;;;;;4.33;3.40;;;16.70;99.90;;;;;;5088749;28;20176;-79
2023/10/05 07:10:33;;;;;;;4.57;3.60;;;16.80;99.90;;;;;;5091128;28;20253;-79
2023/10/05 07:12:58;;;;;;;4.80;2.97;;;16.80;99.90;;;;;;5086374;28;20218;-75
2023/10/05 07:15:24;;;;;;;5.60;3.47;;;16.90;99.90;;;;;;5088724;28;20673;-80
2023/10/05 07:17:50;;;;;;;5.23;3.30;;;17.00;99.90;;;;;;5085801;28;20980;-75
2023/10/05 07:20:19;;;;;;;5.37;3.47;;;17.10;99.90;;;;;;5089831;28;20196;-75
2023/10/05 07:22:46;;;;;;;4.20;3.20;;;17.20;99.90;;;;;;5086582;28;20521;-82
2023/10/05 07:25:14;;;;;;;3.47;3.17;;;17.40;99.90;;;;;;5089640;28;20439;-75
2023/10/05 07:27:41;;;;;;;3.93;3.47;;;17.50;99.90;;;;;;5088106;28;20380;-80
2023/10/05 07:30:11;;;;;;;8.70;4.97;;;17.70;99.90;;;;;;5079078;28;21046;-81
2023/10/05 07:32:38;;;;;;;6.20;3.87;;;17.90;99.90;;;;;;5087348;28;20429;-76
2023/10/05 07:35:07;;;;;;;5.90;3.30;;;18.00;99.90;;;;;;5088535;28;20969;-82
2023/10/05 07:37:36;;;;;;;3.30;3.00;;;18.20;99.90;;;;;;5081873;28;20942;-80
2023/10/05 07:40:09;;;;;;;3.83;3.43;;;18.30;99.90;;;;;;5100011;28;20440;-76
2023/10/05 07:42:34;;;;;;;5.33;4.17;;;18.50;99.90;;;;;;5087595;28;20477;-75
2023/10/05 07:45:00;;;;;;;4.50;3.53;;;18.60;99.90;;;;;;5087940;28;20448;-75
2023/10/05 07:47:26;;;;;;;4.37;3.30;;;18.70;99.90;;;;;;5088589;28;20185;-80
2023/10/05 07:49:53;;;;;;;5.03;3.40;;;18.90;99.90;;;;;;5095229;28;20460;-81
2023/10/05 07:52:20;;;;;;;6.83;3.67;;;19.00;99.90;;;;;;5088054;28;20423;-81
2023/10/05 07:54:46;;;;;;;5.57;3.60;;;19.40;99.90;;;;;;5100731;28;20588;-77
2023/10/05 07:57:13;;;;;;;4.00;3.23;;;19.70;99.90;;;;;;5085033;28;20417;-76
2023/10/05 07:59:42;;;;;;;5.37;3.87;;;20.00;99.90;;;;;;5082545;28;20447;-81
2023/10/05 08:02:10;;;;;;;5.43;2.90;;;20.20;99.90;;;;;;5082929;28;20790;-76
2023/10/05 08:04:35;;;;;;;4.23;3.20;;;20.20;99.90;;;;;;5085354;28;21015;-80
2023/10/05 08:07:01;;;;;;;4.97;3.70;;;20.20;99.90;;;;;;5101885;28;20411;-77
2023/10/05 08:09:27;;;;;;;3.97;3.50;;;20.10;99.90;;;;;;5095890;28;20975;-76
2023/10/05 08:11:57;;;;;;;4.70;3.63;;;20.10;99.90;;;;;;5099885;28;20519;-80
2023/10/05 08:14:26;;;;;;;4.37;3.33;;;20.30;99.90;;;;;;5086203;28;20726;-80
2023/10/05 08:16:55;;;;;;;4.17;3.57;;;20.60;99.90;;;;;;5095652;28;20429;-80
2023/10/05 08:19:24;;;;;;;4.57;3.60;;;20.80;99.90;;;;;;5090374;28;20698;-80
2023/10/05 08:21:53;;;;;;;4.67;4.20;;;21.10;99.90;;;;;;5079897;28;20777;-76
2023/10/05 08:24:23;;;;;;;4.30;3.10;;;21.80;99.90;;;;;;5076231;28;20488;-77
2023/10/05 08:26:53;;;;;;;4.80;3.40;;;22.80;99.90;;;;;;5083403;28;20431;-76
2023/10/05 08:29:22;;;;;;;4.70;3.40;;;23.90;99.10;;;;;;5094375;28;20470;-77
2023/10/05 08:31:51;;;;;;;4.03;2.90;;;24.90;97.70;;;;;;5091229;28;20646;-80
2023/10/05 08:34:20;;;;;;;4.40;2.70;;;25.90;96.10;;;;;;5090804;28;20461;-76
2023/10/05 08:36:53;;;;;;;17.53;4.63;;;26.50;95.70;;;;;;5086745;28;20944;-77
2023/10/05 08:39:24;;;;;;;5.87;3.10;;;27.10;94.10;;;;;;5096491;28;20474;-81
2023/10/05 08:41:54;;;;;;;11.10;4.17;;;27.50;93.10;;;;;;5090350;28;20855;-81
2023/10/05 08:44:26;;;;;;;3.50;3.00;;;27.60;92.50;;;;;;5088147;28;20606;-80
2023/10/05 08:46:55;;;;;;;6.50;3.30;;;27.30;92.40;;;;;;5086155;28;21000;-76
2023/10/05 08:49:25;;;;;;;4.00;2.80;;;26.90;92.30;;;;;;5090607;28;20538;-80
2023/10/05 08:51:51;;;;;;;2.93;2.67;;;26.40;92.70;;;;;;5095250;28;20464;-76
2023/10/05 08:54:21;;;;;;;7.37;3.63;;;26.00;92.30;;;;;;5088657;28;20455;-76
2023/10/05 08:56:48;;;;;;;3.77;3.40;;;25.60;92.40;;;;;;5089175;28;20776;-80
2023/10/05 08:59:14;;;;;;;5.87;3.50;;;25.30;92.50;;;;;;5091276;28;20516;-80
2023/10/05 09:01:45;;;;;;;5.10;2.80;;;24.90;93.10;;;;;;5087501;28;20418;-76
2023/10/05 09:04:23;;;;;;;3.33;2.70;;;24.60;93.40;;;;;;5087266;28;20546;-77
2023/10/05 09:07:08;;;;;;;4.60;3.23;;;24.40;93.60;;;;;;5090660;28;20445;-84
2023/10/05 09:09:56;;;;;;;4.70;3.00;;;24.10;93.90;;;;;;5082977;28;20604;-76
2023/10/05 09:12:37;;;;;;;3.97;3.00;;;23.70;94.60;;;;;;5094006;28;20424;-76
2023/10/05 09:17:59;;;;;;;4.20;3.20;;;23.20;95.70;;;;;;5088884;28;20629;-80
2023/10/05 09:20:31;;;;;;;5.20;3.20;;;23.20;95.70;;;;;;5095542;28;20705;-76
2023/10/05 09:23:00;;;;;;;5.60;4.40;;;23.20;95.60;;;;;;5095817;28;20845;-76
2023/10/05 09:25:35;;;;;;;6.20;3.50;;;23.20;95.60;;;;;;5098811;28;20466;-80
2023/10/05 09:28:12;;;;;;;5.80;3.40;;;23.10;95.40;;;;;;5088770;28;20774;-79
2023/10/05 09:30:55;;;;;;;8.30;4.00;;;22.90;95.80;;;;;;5089822;28;20516;-80
2023/10/05 09:33:22;;;;;;;3.30;2.87;;;22.60;96.00;;;;;;5089515;28;20544;-80
2023/10/05 09:35:48;;;;;;;5.40;3.60;;;22.60;96.20;;;;;;5087755;28;20943;-80
2023/10/05 09:38:15;;;;;;;3.77;3.00;;;22.80;96.20;;;;;;5097240;28;20563;-75
2023/10/05 09:40:46;;;;;;;4.23;3.07;;;23.30;96.00;;;;;;5090863;28;20446;-80
2023/10/05 09:43:18;;;;;;;4.47;2.97;;;23.70;95.50;;;;;;5083918;28;20576;-81
2023/10/05 09:45:45;;;;;;;4.87;2.67;;;24.00;95.10;;;;;;5091674;28;20463;-81
2023/10/05 09:48:13;;;;;;;3.40;2.73;;;24.00;95.00;;;;;;5083101;28;20771;-76
2023/10/05 09:50:40;;;;;;;4.20;2.70;;;23.90;94.70;;;;;;5089022;28;20464;-76
2023/10/05 09:53:07;;;;;;;2.87;2.53;;;23.80;94.70;;;;;;5086312;28;20431;-76
2023/10/05 09:55:33;;;;;;;3.70;2.73;;;23.70;95.30;;;;;;5087346;28;20715;-81
2023/10/05 09:58:05;;;;;;;3.20;2.47;;;23.60;94.70;;;;;;5081264;28;20482;-76
2023/10/05 10:03:03;;;;;;;2.83;2.53;;;23.40;94.40;;;;;;5088408;28;20482;-75
2023/10/05 10:06:08;;;;;;;2.93;2.73;;;23.30;94.70;;;;;;5088168;28;20982;-79
2023/10/05 10:08:42;;;;;;;3.70;2.20;;;23.30;95.10;;;;;;5092314;28;20992;-80
2023/10/05 10:11:18;;;;;;;3.33;2.30;;;23.20;95.10;;;;;;5089110;28;20838;-75
2023/10/05 10:13:51;;;;;;;3.33;3.00;;;23.10;95.00;;;;;;5095639;28;20826;-76
2023/10/05 10:16:23;;;;;;;2.60;2.07;;;23.00;94.80;;;;;;5093371;28;20444;-76
2023/10/05 10:19:04;;;;;;;5.00;2.47;;;23.00;94.90;;;;;;5098947;28;21171;-75
2023/10/05 10:21:42;;;;;;;3.20;2.90;;;22.90;94.70;;;;;;5099844;28;20447;-75
2023/10/05 10:24:12;;;;;;;3.73;2.30;;;22.80;94.60;;;;;;5118041;27;20637;-75
2023/10/05 10:27:07;;;;;;;3.37;2.67;;;22.80;94.80;;;;;;5094959;28;20526;-76
2023/10/05 10:29:46;;;;;;;5.73;2.33;;;22.80;94.60;;;;;;5089402;28;21068;-80
2023/10/05 10:32:19;;;;;;;3.20;2.10;;;22.70;94.60;;;;;;5114692;27;20835;-80
2023/10/05 10:34:56;;;;;;;4.00;2.00;;;22.70;94.90;;;;;;5096777;28;20463;-80
2023/10/05 10:37:48;;;;;;;3.40;2.43;;;22.70;95.10;;;;;;5107408;27;20452;-80
2023/10/05 10:43:06;;;;;;;3.13;2.33;;;22.70;94.50;;;;;;5089149;28;20493;-76
2023/10/05 10:45:36;;;;;;;3.07;2.73;;;22.70;94.40;;;;;;5090112;28;20466;-76
2023/10/05 10:48:08;;;;;;;5.17;2.87;;;22.70;94.30;;;;;;5091110;28;21023;-80
2023/10/05 10:50:37;;;;;;;4.27;2.53;;;22.70;94.50;;;;;;5087665;28;21146;-80
2023/10/05 10:53:16;;;;;;;4.60;2.67;;;22.80;94.90;;;;;;5083860;28;20438;-80
2023/10/05 10:55:45;;;;;;;2.60;2.03;;;22.80;94.70;;;;;;5093701;28;20668;-80
2023/10/05 10:58:13;;;;;;;4.60;2.80;;;22.90;94.70;;;;;;5084817;28;21463;-80
2023/10/05 11:00:56;;;;;;;3.87;2.70;;;22.90;94.00;;;;;;5087934;28;20503;-77
2023/10/05 11:03:36;;;;;;;2.37;2.00;;;22.90;94.20;;;;;;5081873;28;20534;-79
2023/10/05 11:06:04;;;;;;;4.53;2.43;;;23.00;94.00;;;;;;5088701;28;20452;-82
2023/10/05 11:08:40;;;;;;;3.23;2.00;;;23.00;94.10;;;;;;5085550;28;20429;-76
2023/10/05 11:11:19;;;;;;;2.40;2.20;;;23.10;93.70;;;;;;5084125;28;20492;-76
2023/10/05 11:13:49;;;;;;;3.50;2.47;;;23.10;93.70;;;;;;5086286;28;20440;-76
2023/10/05 11:16:15;;;;;;;5.33;3.00;;;23.10;93.90;;;;;;5091281;28;20633;-75
2023/10/05 11:18:57;;;;;;;3.93;2.53;;;23.10;93.90;;;;;;5088010;28;20822;-76
2023/10/05 11:21:27;;;;;;;3.27;2.30;;;23.10;93.80;;;;;;5084885;28;20464;-80
2023/10/05 11:23:57;;;;;;;2.43;2.23;;;23.10;93.90;;;;;;5090839;28;21099;-76
2023/10/05 11:27:05;;;;;;;2.80;2.13;;;23.10;93.90;;;;;;5078893;28;20529;-80
2023/10/05 11:29:15;;;;;;;2.17;2.00;;;23.10;93.70;;;;;;5088386;28;20429;-79
2023/10/05 11:31:44;;;;;;;3.37;2.67;;;23.10;93.60;;;;;;5091094;28;20414;-80
2023/10/05 11:34:11;;;;;;;3.80;2.27;;;23.10;93.60;;;;;;5088514;28;20443;-79
2023/10/05 11:36:42;;;;;;;3.17;2.40;;;23.20;93.60;;;;;;5092407;28;20778;-80
2023/10/05 11:39:38;;;;;;;4.90;2.90;;;23.20;93.10;;;;;;5093093;28;20895;-80
2023/10/05 11:42:04;;;;;;;3.43;2.20;;;23.10;93.10;;;;;;5083235;28;21118;-78
2023/10/05 11:44:29;;;;;;;7.20;2.80;;;23.10;93.40;;;;;;5082626;28;20477;-80
2023/10/05 11:46:55;;;;;;;2.83;2.03;;;23.10;93.40;;;;;;5086684;28;20192;-80
2023/10/05 11:49:30;;;;;;;2.50;2.30;;;23.00;93.30;;;;;;5087718;28;20542;-80
2023/10/05 11:51:57;;;;;;;7.37;2.60;;;23.10;93.00;;;;;;5088936;28;20416;-80
2023/10/05 11:54:30;;;;;;;2.47;2.10;;;23.10;93.40;;;;;;5091673;28;20469;-76
2023/10/05 11:56:56;;;;;;;5.00;2.30;;;23.10;93.60;;;;;;5089022;28;20419;-76
2023/10/05 11:59:28;;;;;;;2.80;2.00;;;23.10;93.40;;;;;;5094573;28;20439;-76
2023/10/05 12:01:55;;;;;;;3.50;1.90;;;23.10;93.10;;;;;;5099237;28;20429;-79
2023/10/05 12:04:23;;;;;;;2.63;1.90;;;23.20;93.10;;;;;;5098251;28;20944;-76
2023/10/05 12:06:58;;;;;;;2.70;1.97;;;23.20;93.10;;;;;;5106627;28;20425;-80
2023/10/05 12:09:36;;;;;;;4.00;2.20;;;23.30;92.80;;;;;;5103315;28;20990;-78
2023/10/05 12:12:03;;;;;;;2.30;1.77;;;23.30;92.80;;;;;;5089672;28;20447;-80
2023/10/05 12:14:29;;;;;;;2.73;2.27;;;23.30;92.10;;;;;;5096792;28;20458;-80
2023/10/05 12:16:56;;;;;;;1.47;1.37;;;23.30;92.30;;;;;;5086424;28;20426;-76
2023/10/05 12:19:28;;;;;;;2.17;1.80;;;23.30;92.60;;;;;;5098396;28;20452;-76
2023/10/05 12:21:55;;;;;;;3.53;1.90;;;23.30;92.50;;;;;;5103924;28;20746;-76
2023/10/05 12:24:21;;;;;;;3.27;2.20;;;23.40;92.60;;;;;;5093526;28;20483;-76
2023/10/05 12:26:47;;;;;;;2.87;2.53;;;23.40;92.50;;;;;;5087788;28;20432;-75
2023/10/05 12:29:13;;;;;;;4.83;2.87;;;23.40;92.00;;;;;;5096178;28;20512;-75
2023/10/05 12:31:42;;;;;;;4.10;3.13;;;23.40;92.30;;;;;;5094508;28;20183;-79
2023/10/05 12:34:09;;;;;;;4.30;2.80;;;23.50;92.50;;;;;;5093937;28;20246;-76
2023/10/05 12:36:35;;;;;;;3.87;2.60;;;23.50;91.80;;;;;;5102490;28;20474;-76
2023/10/05 12:39:01;;;;;;;2.93;1.97;;;23.50;91.70;;;;;;5087325;28;20494;-80
2023/10/05 12:41:36;;;;;;;3.27;2.47;;;23.60;91.90;;;;;;5093251;28;20795;-76
2023/10/05 12:44:02;;;;;;;2.47;2.27;;;23.60;91.70;;;;;;5093694;28;20221;-80
2023/10/05 12:46:33;;;;;;;3.07;2.53;;;23.60;92.10;;;;;;5094955;28;20486;-79
2023/10/05 12:49:07;;;;;;;3.90;2.03;;;23.60;91.60;;;;;;5101174;28;20543;-75
2023/10/05 12:51:37;;;;;;;3.10;2.07;;;23.60;91.60;;;;;;5097103;28;20419;-80
2023/10/05 12:54:08;;;;;;;3.90;2.73;;;23.50;92.40;;;;;;5093736;28;20553;-80
2023/10/05 12:56:34;;;;;;;3.87;1.90;;;23.50;92.60;;;;;;5084521;28;20789;-80
2023/10/05 12:59:03;;;;;;;4.60;2.50;;;23.50;92.60;;;;;;5092227;28;21224;-82
2023/10/05 13:01:29;;;;;;;2.97;1.80;;;23.60;91.70;;;;;;5096607;28;20407;-76
2023/10/05 13:03:55;;;;;;;3.67;2.50;;;23.60;91.80;;;;;;5083907;28;20545;-81
2023/10/05 13:06:24;;;;;;;3.70;2.17;;;23.60;91.90;;;;;;5083376;28;20438;-76
2023/10/05 13:08:50;;;;;;;2.80;2.17;;;23.60;91.70;;;;;;5083268;28;20178;-81
2023/10/05 13:11:17;;;;;;;3.10;1.93;;;23.60;91.70;;;;;;5087878;28;20465;-81
2023/10/05 13:13:43;;;;;;;3.57;2.30;;;23.60;91.90;;;;;;5090921;27;20546;-81
2023/10/05 13:16:14;;;;;;;2.93;1.80;;;23.60;92.50;;;;;;5081868;28;20434;-81
2023/10/05 13:18:42;;;;;;;3.10;1.90;;;23.60;91.90;;;;;;5098308;28;20186;-81
2023/10/05 13:21:11;;;;;;;3.47;2.00;;;23.60;91.80;;;;;;5089809;28;20562;-76
2023/10/05 13:23:40;;;;;;;3.20;1.90;;;23.60;91.80;;;;;;5095773;28;20595;-81
2023/10/05 13:26:06;;;;;;;2.93;2.03;;;23.60;92.10;;;;;;5110144;27;20439;-75